createdAt,value
2019-02-15T05:00:29.129Z,0
2019-02-15T05:03:57.027Z,0
2019-02-15T05:07:24.927Z,0
2019-02-15T05:10:52.845Z,0
2019-02-15T05:14:20.759Z,0
2019-02-15T05:17:48.640Z,0
2019-02-15T05:21:16.549Z,0
2019-02-15T05:24:44.461Z,0
2019-02-15T05:28:12.351Z,0
2019-02-15T05:31:41.232Z,0
2019-02-15T05:35:09.136Z,0
2019-02-15T05:38:38.021Z,0
2019-02-15T05:42:06.919Z,0
2019-02-15T05:45:35.811Z,0
2019-02-15T05:49:03.700Z,0
2019-02-15T05:52:31.610Z,0
2019-02-15T05:56:00.508Z,1
2019-02-15T05:59:28.420Z,1
2019-02-15T06:02:56.314Z,2
2019-02-15T06:06:24.231Z,4
2019-02-15T06:09:52.136Z,7
2019-02-15T06:13:20.030Z,14
2019-02-15T06:16:47.936Z,23
2019-02-15T06:20:15.858Z,36
2019-02-15T06:23:43.739Z,44
2019-02-15T06:27:11.638Z,60
2019-02-15T06:30:39.541Z,78
2019-02-15T06:34:07.529Z,101
2019-02-15T06:37:35.432Z,126
2019-02-15T06:41:03.338Z,162
2019-02-15T06:44:31.247Z,203
2019-02-15T06:47:59.129Z,251
2019-02-15T06:51:27.028Z,342
2019-02-15T06:54:55.176Z,368
2019-02-15T06:58:23.073Z,407
2019-02-15T07:01:50.986Z,493
2019-02-15T07:05:18.884Z,638
2019-02-15T07:08:47.024Z,654
2019-02-15T07:12:14.673Z,759
2019-02-15T07:15:42.579Z,800
2019-02-15T07:19:10.466Z,785
2019-02-15T07:22:38.379Z,884
2019-02-15T07:26:06.289Z,922
2019-02-15T07:29:34.188Z,951
2019-02-15T07:33:02.077Z,1109
2019-02-15T07:36:29.978Z,1133
2019-02-15T07:39:58.867Z,1176
2019-02-15T07:43:26.747Z,1303
2019-02-15T07:46:54.651Z,1439
2019-02-15T07:50:22.561Z,1391
2019-02-15T07:53:50.453Z,1555
2019-02-15T07:57:18.356Z,1568
2019-02-15T08:00:46.260Z,1586
2019-02-15T08:04:14.149Z,1673
2019-02-15T08:07:42.056Z,1784
2019-02-15T08:11:09.962Z,1943
2019-02-15T08:14:37.853Z,1916
2019-02-15T08:18:05.754Z,1732
2019-02-15T08:21:33.666Z,1902
2019-02-15T08:25:02.961Z,1981
2019-02-15T08:28:30.457Z,2262
2019-02-15T08:31:58.371Z,2344
2019-02-15T08:35:27.246Z,2599
2019-02-15T08:38:55.171Z,2528
2019-02-15T08:42:23.075Z,2386
2019-02-15T08:46:00.265Z,2374
2019-02-15T08:49:23.826Z,2652
2019-02-15T08:52:51.734Z,2432
2019-02-15T08:56:20.637Z,3251
2019-02-15T08:59:48.598Z,4143
2019-02-15T09:03:16.501Z,4100
2019-02-15T09:06:45.446Z,4903
2019-02-15T09:10:14.329Z,4326
2019-02-15T09:13:42.225Z,3383
2019-02-15T09:17:10.126Z,5090
2019-02-15T09:20:38.046Z,5454
2019-02-15T09:24:06.045Z,4415
2019-02-15T09:27:34.302Z,4428
2019-02-15T09:31:02.304Z,4608
2019-02-15T09:34:30.164Z,4392
2019-02-15T09:37:59.060Z,4655
2019-02-15T09:41:27.000Z,4549
2019-02-15T09:44:54.908Z,4655
2019-02-15T09:48:23.002Z,4824
2019-02-15T09:51:50.964Z,4942
2019-02-15T09:55:20.831Z,5055
2019-02-15T09:58:49.737Z,5161
2019-02-15T10:02:17.652Z,5195
2019-02-15T10:05:45.557Z,5334
2019-02-15T10:09:13.465Z,5549
2019-02-15T10:12:42.375Z,5729
2019-02-15T10:16:10.281Z,5677
2019-02-15T10:19:38.179Z,5868
2019-02-15T10:23:06.099Z,5981
2019-02-15T10:26:34.180Z,6152
2019-02-15T10:30:03.057Z,6305
2019-02-15T10:33:30.967Z,6464
2019-02-15T10:36:58.853Z,6801
2019-02-15T10:40:26.764Z,7466
2019-02-15T10:43:54.686Z,7705
2019-02-15T10:47:25.611Z,7682
2019-02-15T10:50:53.551Z,7921
2019-02-15T10:54:22.467Z,8568
2019-02-15T10:57:50.387Z,9906
2019-02-15T11:01:18.292Z,17966
2019-02-15T11:04:46.203Z,19792
2019-02-15T11:08:14.108Z,10602
2019-02-15T11:11:42.024Z,10804
2019-02-15T11:15:10.948Z,19464
2019-02-15T11:18:39.879Z,12468
2019-02-15T11:22:07.772Z,19616
2019-02-15T11:25:35.703Z,34896
2019-02-15T11:29:04.610Z,39160
2019-02-15T11:32:32.492Z,41760
2019-02-15T11:36:00.435Z,42112
2019-02-15T11:39:28.365Z,44936
2019-02-15T11:42:56.275Z,45304
2019-02-15T11:46:25.184Z,42552
2019-02-15T11:49:53.123Z,42352
2019-02-15T11:53:21.070Z,44944
2019-02-15T11:56:48.960Z,50792
2019-02-15T12:00:20.903Z,52584
2019-02-15T12:03:49.779Z,52288
2019-02-15T12:07:18.701Z,50744
2019-02-15T12:10:46.631Z,42336
2019-02-15T12:14:14.565Z,48000
2019-02-15T12:17:42.578Z,50704
2019-02-15T12:21:10.482Z,50896
2019-02-15T12:24:38.396Z,49720
2019-02-15T12:28:07.321Z,50648
2019-02-15T12:31:35.252Z,52928
2019-02-15T12:35:03.194Z,53888
2019-02-15T12:38:32.111Z,55040
2019-02-15T12:42:00.043Z,54040
2019-02-15T12:45:27.957Z,52848
2019-02-15T12:48:55.895Z,51648
2019-02-15T12:52:23.797Z,47320
2019-02-15T12:55:51.757Z,56000
2019-02-15T12:59:19.759Z,55800
2019-02-15T13:02:47.691Z,55968
2019-02-15T13:06:15.639Z,62616
2019-02-15T13:09:44.786Z,12513
2019-02-15T13:13:13.742Z,14292
2019-02-15T13:16:41.755Z,13664
2019-02-15T13:20:09.743Z,11585
2019-02-15T13:23:37.703Z,12039
2019-02-15T13:27:05.634Z,13281
2019-02-15T13:30:33.607Z,15085
2019-02-15T13:34:02.599Z,10876
2019-02-15T13:37:30.624Z,12172
2019-02-15T13:40:58.567Z,12027
2019-02-15T13:44:26.760Z,12589
2019-02-15T13:47:55.725Z,11558
2019-02-15T13:51:23.676Z,11596
2019-02-15T13:54:51.678Z,11153
2019-02-15T13:58:19.658Z,11819
2019-02-15T14:01:47.610Z,11687
2019-02-15T14:05:16.600Z,10412
2019-02-15T14:08:44.525Z,10397
2019-02-15T14:12:12.513Z,11149
2019-02-15T14:15:40.485Z,11256
2019-02-15T14:19:08.467Z,10374
2019-02-15T14:22:36.414Z,11270
2019-02-15T14:26:04.376Z,6169
2019-02-15T14:29:33.183Z,5325
2019-02-15T14:33:01.147Z,5083
2019-02-15T14:36:29.079Z,4780
2019-02-15T14:39:57.033Z,4583
2019-02-15T14:43:25.000Z,4446
2019-02-15T14:46:52.922Z,4372
2019-02-15T14:50:20.838Z,4231
2019-02-15T14:53:48.933Z,3857
2019-02-15T14:57:16.670Z,3510
2019-02-15T15:00:44.581Z,3287
2019-02-15T15:04:12.496Z,3050
2019-02-15T15:07:40.433Z,2804
2019-02-15T15:11:08.351Z,2282
2019-02-15T15:14:37.297Z,2024
2019-02-15T15:18:12.899Z,1876
2019-02-15T15:21:39.257Z,1747
2019-02-15T15:25:07.253Z,1659
2019-02-15T15:28:35.343Z,1659
2019-02-15T15:32:03.835Z,1546
2019-02-15T15:35:31.761Z,1416
2019-02-15T15:38:59.749Z,1201
2019-02-15T15:42:27.806Z,1111
2019-02-15T15:45:55.780Z,900
2019-02-15T15:49:23.762Z,870
2019-02-15T15:52:51.784Z,762
2019-02-15T15:56:19.858Z,640
2019-02-15T15:59:47.860Z,543
2019-02-15T16:03:15.816Z,456
2019-02-15T16:06:43.719Z,371
2019-02-15T16:10:11.670Z,298
2019-02-15T16:13:39.612Z,235
2019-02-15T16:17:07.511Z,177
2019-02-15T16:20:36.423Z,132
2019-02-15T16:24:12.476Z,92
2019-02-15T16:27:37.828Z,60
2019-02-15T16:31:07.291Z,38
2019-02-15T16:34:36.078Z,24
2019-02-15T16:38:04.224Z,14
2019-02-15T16:41:32.158Z,8
2019-02-15T16:45:00.157Z,4
2019-02-15T16:48:28.004Z,3
2019-02-15T16:51:58.811Z,1
2019-02-15T16:55:26.814Z,0
2019-02-15T16:58:54.735Z,0
2019-02-15T17:02:22.662Z,0
2019-02-15T17:05:50.614Z,0
2019-02-15T17:09:18.518Z,0
2019-02-15T17:12:46.435Z,0
2019-02-15T17:16:14.329Z,0
2019-02-15T17:19:42.261Z,0
2019-02-15T17:23:10.166Z,0
2019-02-15T17:26:38.110Z,0
2019-02-15T17:30:06.017Z,0
2019-02-15T17:33:33.911Z,0
2019-02-15T17:37:01.827Z,0
2019-02-15T17:40:30.750Z,0
2019-02-15T17:43:58.659Z,0
2019-02-15T17:47:26.583Z,0
2019-02-15T17:50:54.513Z,0
2019-02-15T17:54:23.404Z,0
2019-02-15T17:57:51.326Z,0
2019-02-15T18:01:19.272Z,0
2019-02-15T18:04:47.735Z,0
2019-02-15T18:08:15.641Z,0
2019-02-15T18:11:44.575Z,0
2019-02-15T18:15:12.573Z,0
2019-02-15T18:18:40.589Z,0
2019-02-15T18:22:09.419Z,0
2019-02-15T18:25:37.706Z,0
2019-02-15T18:29:05.686Z,0
2019-02-15T18:32:33.680Z,0
2019-02-15T18:36:01.674Z,0
2019-02-15T18:39:29.686Z,0
2019-02-15T18:42:57.744Z,0
2019-02-15T18:46:26.751Z,0
2019-02-15T18:49:54.691Z,0
2019-02-15T18:53:22.691Z,0
2019-02-15T18:56:50.861Z,0
2019-02-15T19:00:18.831Z,0
2019-02-15T19:03:47.715Z,0
2019-02-15T19:07:16.799Z,0
2019-02-15T19:10:45.927Z,0
2019-02-15T19:14:14.090Z,0
2019-02-15T19:17:42.062Z,0
2019-02-15T19:21:10.109Z,0
2019-02-15T19:24:38.102Z,0
2019-02-15T19:28:06.047Z,0
2019-02-15T19:32:57.217Z,0
2019-02-15T19:36:25.209Z,0
2019-02-15T19:39:54.258Z,0
2019-02-15T19:43:22.271Z,0
2019-02-15T19:46:50.256Z,0
2019-02-15T19:50:18.240Z,0
2019-02-15T19:53:46.257Z,0
2019-02-15T19:57:14.357Z,0
2019-02-15T20:00:43.322Z,0
2019-02-15T20:04:12.287Z,0
2019-02-15T20:07:40.210Z,0
2019-02-15T20:11:08.185Z,0
2019-02-15T20:14:36.201Z,0
2019-02-15T20:18:04.201Z,0
2019-02-15T20:21:32.128Z,0
2019-02-15T20:25:02.191Z,0
2019-02-15T20:28:30.169Z,0
2019-02-15T20:31:58.186Z,0
2019-02-15T20:35:26.224Z,0
2019-02-15T20:38:54.190Z,0
2019-02-15T20:42:22.155Z,0
2019-02-15T20:45:50.119Z,0
2019-02-15T20:49:19.244Z,0
2019-02-15T20:52:47.232Z,0
2019-02-15T20:56:15.385Z,0
2019-02-15T20:59:43.405Z,0
2019-02-15T21:03:12.351Z,0
2019-02-15T21:06:40.303Z,0
2019-02-15T21:10:08.241Z,0
2019-02-15T21:13:36.193Z,0
2019-02-15T21:17:04.169Z,0
2019-02-15T21:20:32.866Z,0
2019-02-15T21:24:00.886Z,0
2019-02-15T21:27:28.841Z,0
2019-02-15T21:30:56.817Z,0
2019-02-15T21:34:24.747Z,0
2019-02-15T21:37:53.440Z,0
2019-02-15T21:41:22.503Z,0
2019-02-15T21:44:50.666Z,0
2019-02-15T21:48:19.493Z,0
2019-02-15T21:51:48.613Z,0
2019-02-15T21:55:16.708Z,0
2019-02-15T21:58:44.727Z,0
2019-02-15T22:02:12.658Z,0
2019-02-15T22:05:40.568Z,0
2019-02-15T22:09:08.521Z,0
2019-02-15T22:12:36.503Z,0
2019-02-15T22:16:04.402Z,0
2019-02-15T22:19:32.318Z,0
2019-02-15T22:23:01.224Z,0
2019-02-15T22:26:29.144Z,0
2019-02-15T22:29:58.023Z,0
2019-02-15T22:33:25.964Z,0
2019-02-15T22:36:53.854Z,0
2019-02-15T22:40:22.772Z,0
2019-02-15T22:43:50.698Z,0
2019-02-15T22:47:18.634Z,0
2019-02-15T22:50:46.531Z,0
2019-02-15T22:54:14.450Z,0
2019-02-15T22:57:42.340Z,0
